SZF weather

Samsun Çarşamba Airport
Samsun, Samsun Province, Turkey

Public forecast

Using degrees Celsius for public forecast. Weather courtesy of forecast.io.

Current aviation weather report (METAR) for Samsun Çarşamba Airport

Retrieved 2020/02/24 11:50 UTC (41 minutes ago):

LTFH 241150Z 20008KT 160V230 9999 SCT030 BKN100 17/02 Q1008 NOSIG

Aviation forecast (TAF) for Samsun Çarşamba Airport

Forecast is more than 12 hours old.

Retrieved 2010/09/30 10:40 UTC (9 years ago):

TAF LTFH 301040Z 3012/0112 32012KT 9999 SCT036 BKN100 TEMPO 3013/3017 -SHRA BKN030 BKN090 PROB40 TEMPO 3018/3021 -TSRA FEW025CB BKN030